Time;durP1;ratioP1;P1;durP2;ratioP2;P2;SDS_P1;SDS_P2;PMS_P1;PMS_P2;Temp;Humidity;BMP_temperature;BMP_pressure;BME280_temperature;BME280_humidity;BME280_pressure;Samples;Min_cycle;Max_cycle;Signal;HPM_P1;HPM_P2
2023/10/07 00:01:24;;;;;;;27.00;11.07;;;;;;;15.07;100.00;102010.19;5037007;28;20033;-73
2023/10/07 00:03:53;;;;;;;23.40;9.93;;;;;;;15.07;100.00;102012.03;5032506;28;20044;-73
2023/10/07 00:06:25;;;;;;;16.20;9.25;;;;;;;15.00;100.00;102015.06;5023815;28;20069;-74
2023/10/07 00:08:51;;;;;;;20.73;10.23;;;;;;;15.03;100.00;101997.91;5027855;28;20034;-73
2023/10/07 00:11:16;;;;;;;24.60;11.52;;;;;;;15.00;100.00;101996.25;5026690;28;20062;-73
2023/10/07 00:13:42;;;;;;;22.92;11.88;;;;;;;14.97;100.00;101984.88;5031343;28;20033;-74
2023/10/07 00:16:11;;;;;;;25.90;10.98;;;;;;;15.06;100.00;101995.03;5025046;28;20045;-73
2023/10/07 00:18:38;;;;;;;25.50;10.95;;;;;;;15.11;100.00;101997.41;5019653;28;20042;-74
2023/10/07 00:21:04;;;;;;;24.98;12.15;;;;;;;15.16;100.00;101976.47;5028357;28;20220;-73
2023/10/07 00:23:30;;;;;;;20.65;11.02;;;;;;;15.14;100.00;102002.59;5025235;28;20038;-73
2023/10/07 00:25:57;;;;;;;21.20;11.20;;;;;;;15.19;100.00;102005.84;5031748;28;20038;-73
2023/10/07 00:28:35;;;;;;;25.67;11.32;;;;;;;15.28;100.00;102008.81;5029846;28;20030;-73
2023/10/07 00:31:05;;;;;;;31.33;11.20;;;;;;;15.30;100.00;102030.19;5022836;28;20966;-74
2023/10/07 00:33:49;;;;;;;28.00;11.45;;;;;;;15.34;100.00;102007.53;5042488;28;20040;-73
2023/10/07 00:36:22;;;;;;;33.65;12.70;;;;;;;15.32;100.00;102012.16;5033133;28;20045;-73
2023/10/07 00:38:47;;;;;;;;;;;;;;;15.31;100.00;102005.03;5042562;28;20119;-74
2023/10/07 00:41:18;;;;;;;25.33;12.60;;;;;;;15.27;100.00;102012.47;5032604;28;20131;-73
2023/10/07 00:43:44;;;;;;;24.95;11.93;;;;;;;15.32;100.00;102009.47;5044663;28;20077;-73
2023/10/07 00:48:56;;;;;;;26.48;13.20;;;;;;;15.31;100.00;102001.50;5032708;28;20816;-73
2023/10/07 00:51:35;;;;;;;23.58;12.45;;;;;;;15.34;100.00;102001.31;5023111;28;20130;-73
2023/10/07 00:57:03;;;;;;;29.33;11.60;;;;;;;15.21;100.00;102003.91;5023982;28;20094;-73
2023/10/07 00:59:29;;;;;;;24.05;12.80;;;;;;;15.19;100.00;102013.91;5023715;28;20148;-73
2023/10/07 01:01:57;;;;;;;29.95;12.07;;;;;;;15.18;100.00;101996.06;5039676;28;20975;-73
2023/10/07 01:04:23;;;;;;;29.95;13.40;;;;;;;15.13;100.00;101993.66;5038537;28;20033;-73
2023/10/07 01:06:48;;;;;;;31.83;14.18;;;;;;;15.02;100.00;101998.88;5034661;28;20056;-73
2023/10/07 01:09:22;;;;;;;23.90;12.27;;;;;;;15.09;100.00;101991.28;5039393;28;20049;-73
2023/10/07 01:11:57;;;;;;;26.67;12.25;;;;;;;15.04;100.00;101988.88;5035241;28;20052;-74
2023/10/07 01:14:33;;;;;;;24.42;12.80;;;;;;;15.02;100.00;101991.69;5039046;28;20056;-73
2023/10/07 01:17:00;;;;;;;25.17;12.48;;;;;;;15.08;100.00;101993.09;5035855;28;20041;-73
2023/10/07 01:19:43;;;;;;;27.88;12.63;;;;;;;15.03;100.00;101990.72;5039456;28;20069;-73
2023/10/07 01:22:18;;;;;;;25.17;12.43;;;;;;;15.11;100.00;101992.03;5037402;28;20156;-73
2023/10/07 01:24:44;;;;;;;27.00;14.00;;;;;;;15.12;100.00;101985.72;5031443;28;20080;-73
2023/10/07 01:30:13;;;;;;;27.07;14.50;;;;;;;15.10;100.00;101977.72;5037774;28;20033;-73
2023/10/07 01:32:48;;;;;;;34.58;14.18;;;;;;;15.10;100.00;101966.13;5030898;28;20252;-72
2023/10/07 01:35:24;;;;;;;29.02;15.13;;;;;;;14.98;100.00;101976.72;5031797;28;20032;-73
2023/10/07 01:37:59;;;;;;;30.10;15.18;;;;;;;15.03;100.00;101987.16;5021847;28;20200;-72
2023/10/07 01:40:31;;;;;;;36.33;15.30;;;;;;;15.07;100.00;101987.84;5026288;28;20034;-72
2023/10/07 01:42:56;;;;;;;29.60;15.48;;;;;;;15.15;100.00;101996.25;5029226;28;20042;-73
2023/10/07 01:45:22;;;;;;;28.80;15.43;;;;;;;15.13;100.00;101988.31;5034629;28;20045;-73
2023/10/07 01:47:49;;;;;;;34.60;15.48;;;;;;;15.13;100.00;101995.50;5035079;28;21134;-73
2023/10/07 01:50:18;;;;;;;25.55;15.00;;;;;;;15.14;100.00;101983.78;5024802;28;20042;-72
2023/10/07 01:52:53;;;;;;;35.05;16.60;;;;;;;15.14;100.00;101989.16;5034946;28;20045;-73
2023/10/07 01:55:19;;;;;;;42.10;16.55;;;;;;;15.12;100.00;101986.56;5034048;28;20041;-73
2023/10/07 01:57:48;;;;;;;27.65;15.85;;;;;;;15.19;100.00;101977.16;5023748;28;20038;-73
2023/10/07 02:00:34;;;;;;;36.08;16.00;;;;;;;15.17;100.00;101980.91;5023759;28;20044;-73
2023/10/07 02:03:02;;;;;;;36.78;16.65;;;;;;;15.07;100.00;101983.31;5031783;28;20135;-72
2023/10/07 02:05:34;;;;;;;35.70;16.23;;;;;;;15.05;100.00;101981.69;5021212;28;20046;-73
2023/10/07 02:08:02;;;;;;;32.65;17.17;;;;;;;15.07;100.00;101985.16;5042177;28;20025;-73
2023/10/07 02:10:27;;;;;;;29.38;16.25;;;;;;;15.02;100.00;101975.56;5033121;28;20064;-73
2023/10/07 02:12:55;;;;;;;40.40;16.88;;;;;;;15.03;100.00;101981.78;5034540;28;20030;-73
2023/10/07 02:15:21;;;;;;;28.77;15.70;;;;;;;15.18;100.00;101978.13;5030668;28;20053;-73
2023/10/07 02:17:47;;;;;;;30.75;17.15;;;;;;;15.20;100.00;101978.88;5023450;28;20037;-73
2023/10/07 02:20:25;;;;;;;33.10;17.67;;;;;;;15.12;100.00;101977.66;5037911;28;20030;-73
2023/10/07 02:22:51;;;;;;;32.50;16.58;;;;;;;15.20;100.00;101978.88;5029367;28;20156;-73
2023/10/07 02:25:21;;;;;;;35.17;17.15;;;;;;;15.24;100.00;101977.72;5034300;28;20041;-73
2023/10/07 02:27:48;;;;;;;37.90;17.40;;;;;;;15.21;100.00;101980.63;5028291;28;20037;-74
2023/10/07 02:30:20;;;;;;;42.75;19.00;;;;;;;15.24;100.00;101982.22;5030598;28;20144;-73
2023/10/07 02:32:46;;;;;;;35.88;17.15;;;;;;;15.22;100.00;101979.66;5029501;28;20041;-73
2023/10/07 02:35:19;;;;;;;32.05;18.10;;;;;;;15.24;100.00;101982.22;5035532;28;20920;-73
2023/10/07 02:37:49;;;;;;;36.58;17.42;;;;;;;15.20;100.00;101986.06;5025114;28;20033;-73
2023/10/07 02:40:36;;;;;;;35.63;16.95;;;;;;;15.26;100.00;101974.91;5034852;28;20041;-73
2023/10/07 02:43:08;;;;;;;42.40;18.00;;;;;;;15.23;100.00;101983.19;5033352;28;20042;-74
2023/10/07 02:45:40;;;;;;;35.80;19.45;;;;;;;15.21;100.00;101972.56;5034174;28;20029;-73
2023/10/07 02:48:10;;;;;;;34.50;18.95;;;;;;;15.28;100.00;101984.63;5032697;28;20029;-73
2023/10/07 02:50:41;;;;;;;44.58;19.58;;;;;;;15.27;100.00;101976.66;5024177;28;20072;-73
2023/10/07 02:53:16;;;;;;;48.33;21.98;;;;;;;15.32;100.00;101979.91;5032131;28;20134;-73
2023/10/07 02:55:54;;;;;;;35.63;18.50;;;;;;;15.27;100.00;101985.59;5033336;28;20050;-73
2023/10/07 02:58:50;;;;;;;35.70;19.35;;;;;;;15.35;100.00;101982.38;5047747;28;20033;-73
2023/10/07 03:01:13;;;;;;;37.90;19.23;;;;;;;15.29;100.00;101977.41;5028693;28;20054;-73
2023/10/07 03:03:40;;;;;;;38.95;19.60;;;;;;;15.34;100.00;101977.97;5033493;28;20033;-73
2023/10/07 03:06:07;;;;;;;44.33;21.48;;;;;;;15.41;100.00;101975.75;5033135;28;20527;-73
2023/10/07 03:08:40;;;;;;;40.85;19.92;;;;;;;15.39;100.00;101981.22;5027735;28;20087;-73
2023/10/07 03:11:12;;;;;;;44.22;20.63;;;;;;;15.36;100.00;101975.19;5029779;28;20041;-73
2023/10/07 03:13:45;;;;;;;42.53;21.70;;;;;;;15.38;100.00;101970.59;5030597;28;20086;-72
2023/10/07 03:21:35;;;;;;;41.78;21.95;;;;;;;15.46;100.00;101981.69;5034517;28;20033;-73
2023/10/07 03:24:03;;;;;;;42.83;22.63;;;;;;;15.34;100.00;101974.44;5029314;28;20040;-73
2023/10/07 03:26:32;;;;;;;44.90;22.08;;;;;;;15.40;100.00;101990.16;5028291;28;20034;-73
2023/10/07 03:28:58;;;;;;;47.05;22.10;;;;;;;15.45;100.00;101991.56;5033479;28;20037;-73
2023/10/07 03:31:47;;;;;;;43.70;22.55;;;;;;;15.38;100.00;101987.56;5034192;28;20045;-73
2023/10/07 03:34:13;;;;;;;44.55;22.33;;;;;;;15.47;100.00;102004.94;5032576;28;20053;-73
2023/10/07 03:36:48;;;;;;;43.67;23.10;;;;;;;15.45;100.00;101991.56;5020313;28;20046;-73
2023/10/07 03:41:52;;;;;;;44.85;21.85;;;;;;;15.49;100.00;102003.84;5032704;28;20127;-73
2023/10/07 03:44:20;;;;;;;48.85;24.17;;;;;;;15.52;100.00;101986.69;5025549;28;20044;-73
2023/10/07 03:46:50;;;;;;;51.00;23.83;;;;;;;15.52;100.00;101986.69;5023607;28;20049;-73
2023/10/07 03:49:16;;;;;;;53.72;23.30;;;;;;;15.57;100.00;101986.38;5032218;28;20040;-73
2023/10/07 03:52:07;;;;;;;40.47;23.20;;;;;;;15.58;100.00;101985.41;5034331;28;20104;-73
2023/10/07 03:54:40;;;;;;;42.25;24.75;;;;;;;15.59;100.00;101988.00;5028975;28;20045;-73
2023/10/07 03:57:07;;;;;;;48.17;23.77;;;;;;;15.54;100.00;101982.91;5037289;28;20133;-72
2023/10/07 03:59:34;;;;;;;49.70;24.88;;;;;;;15.54;100.00;101982.06;5035155;28;20037;-73
2023/10/07 04:02:00;;;;;;;46.03;25.08;;;;;;;15.64;100.00;101985.88;5026445;28;20038;-73
2023/10/07 04:04:26;;;;;;;51.63;25.67;;;;;;;15.67;100.00;101980.31;5036957;28;20037;-72
2023/10/07 04:06:52;;;;;;;46.13;23.63;;;;;;;15.62;100.00;101979.72;5029406;28;20041;-73
2023/10/07 04:09:19;;;;;;;52.22;24.30;;;;;;;15.60;100.00;101984.31;5030077;28;20041;-73
2023/10/07 04:11:53;;;;;;;47.88;24.60;;;;;;;15.56;100.00;101977.41;5034913;28;20060;-73
2023/10/07 04:14:27;;;;;;;64.07;25.95;;;;;;;15.62;100.00;101968.97;5032643;28;20139;-74
2023/10/07 04:16:54;;;;;;;47.40;25.33;;;;;;;15.69;100.00;101964.94;5028045;28;20056;-73
2023/10/07 04:21:50;;;;;;;47.05;25.63;;;;;;;15.69;100.00;101956.88;5033229;28;20034;-73
2023/10/07 04:24:38;;;;;;;50.85;26.13;;;;;;;15.60;100.00;101970.88;5035880;28;20029;-73
2023/10/07 04:27:05;;;;;;;55.30;26.15;;;;;;;15.70;100.00;101966.66;5027534;28;20034;-74
2023/10/07 04:29:31;;;;;;;47.55;24.92;;;;;;;15.71;100.00;101964.81;5026962;28;20103;-72
2023/10/07 04:31:58;;;;;;;46.65;25.98;;;;;;;15.72;100.00;101975.50;5025123;28;20065;-73
2023/10/07 04:34:33;;;;;;;47.63;26.95;;;;;;;15.69;100.00;101970.31;5033725;28;20653;-73
2023/10/07 04:39:37;;;;;;;55.00;27.20;;;;;;;15.77;100.00;101972.50;5027549;28;20056;-74
2023/10/07 04:42:20;;;;;;;58.58;26.02;;;;;;;15.72;100.00;101978.19;5022133;28;20042;-73
2023/10/07 04:47:34;;;;;;;60.70;27.02;;;;;;;15.70;100.00;101990.84;5033981;28;20047;-73
2023/10/07 04:50:16;;;;;;;43.25;25.65;;;;;;;15.77;100.00;101984.13;5045466;28;20157;-73
2023/10/07 04:52:51;;;;;;;55.22;26.23;;;;;;;15.77;100.00;101996.72;5030772;28;20029;-73
2023/10/07 04:55:19;;;;;;;52.72;27.42;;;;;;;15.72;100.00;101983.56;5036726;28;20025;-73
2023/10/07 05:00:43;;;;;;;53.65;25.95;;;;;;;15.69;100.00;101986.44;5032831;28;20052;-73
2023/10/07 05:03:14;;;;;;;58.50;26.77;;;;;;;15.78;100.00;101974.22;5031377;28;20053;-73
2023/10/07 05:05:43;;;;;;;53.33;28.08;;;;;;;15.68;100.00;101983.88;5034569;28;20050;-73
2023/10/07 05:10:52;;;;;;;54.67;27.77;;;;;;;15.73;100.00;101971.84;5034565;28;20061;-73
2023/10/07 05:13:18;;;;;;;52.92;27.65;;;;;;;15.75;100.00;101960.97;5033470;28;20044;-74
2023/10/07 05:15:43;;;;;;;58.28;29.42;;;;;;;15.73;100.00;101973.66;5033970;28;20095;-73
2023/10/07 05:18:16;;;;;;;55.78;29.50;;;;;;;15.72;100.00;101982.69;5034801;28;20049;-73
2023/10/07 05:20:43;;;;;;;60.78;29.98;;;;;;;15.69;100.00;101981.06;5026156;28;20045;-73
2023/10/07 05:23:13;;;;;;;57.88;29.30;;;;;;;15.74;100.00;101978.06;5031211;28;20552;-73
2023/10/07 05:25:48;;;;;;;62.78;30.10;;;;;;;15.75;100.00;101987.84;5028923;28;20883;-73
2023/10/07 05:28:17;;;;;;;66.78;31.85;;;;;;;15.70;100.00;101990.00;5034551;28;20073;-73
2023/10/07 05:30:50;;;;;;;55.80;29.48;;;;;;;15.73;100.00;101982.59;5031269;28;20058;-74
2023/10/07 05:33:26;;;;;;;63.95;32.17;;;;;;;15.78;100.00;101979.59;5031794;28;20049;-74
2023/10/07 05:35:58;;;;;;;56.40;31.25;;;;;;;15.77;100.00;101972.50;5030971;28;20049;-72
2023/10/07 05:38:25;;;;;;;56.50;31.92;;;;;;;15.83;100.00;101968.53;5029981;28;20072;-73
2023/10/07 05:40:53;;;;;;;61.80;32.88;;;;;;;15.82;100.00;101966.81;5026433;28;20045;-73
2023/10/07 05:43:18;;;;;;;62.75;33.75;;;;;;;15.85;100.00;101972.81;5032341;28;21527;-73
2023/10/07 05:45:45;;;;;;;70.57;34.80;;;;;;;15.83;100.00;101980.16;5033556;28;20040;-73
2023/10/07 05:48:11;;;;;;;60.35;33.47;;;;;;;15.92;100.00;101978.69;5031455;28;20026;-74
2023/10/07 05:50:38;;;;;;;71.38;35.10;;;;;;;15.84;100.00;101962.19;5028568;28;20864;-74
2023/10/07 05:53:05;;;;;;;70.65;34.80;;;;;;;15.85;100.00;101966.59;5030473;28;20034;-73
2023/10/07 05:55:33;;;;;;;76.05;35.95;;;;;;;15.88;100.00;101966.38;5024159;28;20113;-73
2023/10/07 05:58:01;;;;;;;64.60;36.20;;;;;;;15.86;100.00;101960.22;5022382;28;20041;-73
2023/10/07 06:00:31;;;;;;;69.18;35.45;;;;;;;15.89;100.00;101965.41;5027515;28;20146;-73
2023/10/07 06:02:57;;;;;;;62.13;34.83;;;;;;;16.00;100.00;101976.31;5020311;28;20044;-74
2023/10/07 06:05:27;;;;;;;72.80;36.17;;;;;;;15.93;100.00;101980.38;5022868;28;20123;-73
2023/10/07 06:07:57;;;;;;;68.63;36.53;;;;;;;16.04;100.00;101975.13;5029953;28;20048;-73
2023/10/07 06:10:24;;;;;;;69.05;35.90;;;;;;;16.07;100.00;101984.84;5031321;28;20068;-73
2023/10/07 06:12:53;;;;;;;63.35;34.95;;;;;;;16.09;100.00;101982.91;5029382;28;20100;-74
2023/10/07 06:15:19;;;;;;;68.20;35.88;;;;;;;16.20;100.00;101983.00;5028802;28;20045;-74
2023/10/07 06:17:45;;;;;;;68.00;36.00;;;;;;;16.16;100.00;101989.56;5026580;28;20144;-73
2023/10/07 06:20:18;;;;;;;63.63;35.60;;;;;;;16.17;100.00;101997.56;5028595;28;20208;-73
2023/10/07 06:22:48;;;;;;;72.13;33.90;;;;;;;16.19;100.00;101997.44;5020415;28;20045;-73
2023/10/07 06:25:17;;;;;;;57.30;31.52;;;;;;;16.28;100.00;102003.06;5024072;28;20052;-74
2023/10/07 06:27:46;;;;;;;67.32;36.28;;;;;;;16.25;100.00;101984.41;5031335;28;20224;-73
2023/10/07 06:30:20;;;;;;;65.10;34.22;;;;;;;16.22;100.00;101983.78;5022915;28;20038;-73
2023/10/07 06:32:55;;;;;;;65.75;34.47;;;;;;;16.30;100.00;101984.09;5020880;28;20034;-73
2023/10/07 06:35:25;;;;;;;60.67;34.15;;;;;;;16.38;100.00;101984.44;5032194;28;20119;-73
2023/10/07 06:37:57;;;;;;;68.43;34.42;;;;;;;16.44;100.00;101992.09;5025792;28;20050;-73
2023/10/07 06:40:28;;;;;;;60.25;34.47;;;;;;;16.50;100.00;102002.41;5021674;28;20152;-73
2023/10/07 06:42:56;;;;;;;62.15;34.92;;;;;;;16.45;100.00;102003.72;5030679;28;20045;-73
2023/10/07 06:45:22;;;;;;;60.35;35.17;;;;;;;16.53;100.00;102007.59;5026808;28;20033;-73
2023/10/07 06:47:48;;;;;;;57.65;34.22;;;;;;;16.56;100.00;102001.13;5023391;28;20088;-73
2023/10/07 06:50:19;;;;;;;62.88;34.25;;;;;;;16.55;100.00;101997.56;5023735;28;20041;-73
2023/10/07 06:52:46;;;;;;;56.72;34.13;;;;;;;16.63;100.00;101994.34;5021277;28;20940;-73
2023/10/07 06:55:18;;;;;;;60.08;32.45;;;;;;;16.73;100.00;101987.38;5029124;28;20038;-73
2023/10/07 06:57:47;;;;;;;59.53;32.35;;;;;;;16.80;100.00;101987.81;5030159;28;20050;-73
2023/10/07 07:00:25;;;;;;;63.15;33.75;;;;;;;16.79;100.00;102000.41;5025047;28;20053;-73
2023/10/07 07:02:57;;;;;;;62.40;32.88;;;;;;;16.79;100.00;101997.72;5029989;28;20042;-73
2023/10/07 07:05:23;;;;;;;;;;;;;;;16.95;100.00;102010.09;5026443;28;20125;-74
2023/10/07 07:07:56;;;;;;;61.28;31.73;;;;;;;16.93;100.00;102009.34;5022526;28;19932;-74
2023/10/07 07:10:28;;;;;;;61.50;31.45;;;;;;;17.00;100.00;102019.56;5026648;28;20038;-73
2023/10/07 07:12:59;;;;;;;;;;;;;;;17.03;100.00;102002.34;5038684;28;20942;-74
2023/10/07 07:15:36;;;;;;;61.15;32.63;;;;;;;17.02;100.00;102014.09;5021661;28;19917;-74
2023/10/07 07:18:14;;;;;;;54.38;31.30;;;;;;;17.01;100.00;102018.59;5032384;28;20054;-73
2023/10/07 07:20:55;;;;;;;61.53;30.98;;;;;;;17.15;100.00;102014.91;5058203;28;20030;-73
2023/10/07 07:23:56;;;;;;;62.80;30.38;;;;;;;17.14;100.00;102009.63;5025547;28;20042;-73
2023/10/07 07:26:18;;;;;;;51.50;28.77;;;;;;;17.13;100.00;102007.91;5021710;28;20064;-73
2023/10/07 07:28:44;;;;;;;47.50;28.17;;;;;;;17.19;100.00;102013.72;5036973;28;20029;-74
2023/10/07 07:31:11;;;;;;;52.85;29.58;;;;;;;17.23;100.00;102012.53;5040719;28;20036;-73
2023/10/07 07:33:38;;;;;;;52.40;29.02;;;;;;;17.21;100.00;102008.22;5024595;28;20056;-73
2023/10/07 07:38:51;;;;;;;46.30;26.60;;;;;;;17.14;100.00;102005.09;5035220;28;20037;-73
2023/10/07 07:41:37;;;;;;;43.50;26.33;;;;;;;17.11;100.00;102012.53;5018235;28;20148;-73
2023/10/07 07:44:10;;;;;;;49.78;26.75;;;;;;;17.22;100.00;102009.94;5023910;28;20038;-73
2023/10/07 07:46:54;;;;;;;50.92;24.27;;;;;;;17.20;100.00;102001.97;5026264;28;20032;-73
2023/10/07 07:49:20;;;;;;;46.80;26.27;;;;;;;17.18;100.00;101997.66;5023292;28;20040;-73
2023/10/07 07:51:51;;;;;;;44.28;23.58;;;;;;;17.18;100.00;102005.75;5019507;28;20037;-73
2023/10/07 07:54:17;;;;;;;44.42;23.35;;;;;;;17.26;100.00;102012.28;5022535;28;20062;-73
2023/10/07 07:56:45;;;;;;;42.58;23.65;;;;;;;17.22;100.00;102010.81;5030924;28;20152;-73
2023/10/07 07:59:13;;;;;;;46.00;23.02;;;;;;;17.26;100.00;102016.81;5027137;28;21005;-73
2023/10/07 08:01:50;;;;;;;38.40;21.73;;;;;;;17.23;100.00;102017.94;5020535;28;20045;-73
2023/10/07 08:04:37;;;;;;;38.40;23.05;;;;;;;17.32;100.00;102019.09;5031086;28;20037;-73
2023/10/07 08:07:06;;;;;;;39.13;22.17;;;;;;;17.41;100.00;102018.41;5029403;28;20126;-74
2023/10/07 08:09:36;;;;;;;40.15;21.65;;;;;;;17.33;100.00;102018.13;5025392;28;20046;-73
2023/10/07 08:12:05;;;;;;;41.10;21.30;;;;;;;17.36;100.00;102017.88;5025865;28;20025;-73
2023/10/07 08:14:32;;;;;;;43.70;22.00;;;;;;;17.43;100.00;102018.31;5027395;28;20135;-73
2023/10/07 08:17:00;;;;;;;38.17;22.30;;;;;;;17.45;100.00;102005.56;5031525;28;20124;-73
2023/10/07 08:19:25;;;;;;;41.13;21.52;;;;;;;17.72;100.00;102013.41;5026903;28;20040;-73
2023/10/07 08:21:52;;;;;;;44.92;22.08;;;;;;;17.84;100.00;102018.81;5022269;28;20034;-73
2023/10/07 08:24:21;;;;;;;35.78;20.75;;;;;;;17.76;100.00;102004.16;5025068;28;20141;-73
2023/10/07 08:26:59;;;;;;;38.95;20.05;;;;;;;17.74;100.00;102006.97;5025711;28;20038;-73
2023/10/07 08:29:34;;;;;;;35.53;20.23;;;;;;;17.70;100.00;101999.19;5026943;28;20126;-73
2023/10/07 08:32:28;;;;;;;48.60;20.83;;;;;;;17.82;100.00;101987.50;5026412;28;20044;-73
2023/10/07 08:34:59;;;;;;;33.72;18.20;;;;;;;18.13;100.00;101967.16;5026672;28;20041;-74
2023/10/07 08:37:32;;;;;;;39.15;18.35;;;;;;;18.40;100.00;101963.28;5026016;28;20147;-73
2023/10/07 08:40:11;;;;;;;34.05;17.13;;;;;;;18.38;100.00;101964.25;5030788;28;20037;-74
2023/10/07 08:42:43;;;;;;;34.58;18.63;;;;;;;18.38;100.00;101958.00;5028430;28;20041;-74
2023/10/07 08:45:14;;;;;;;32.63;16.90;;;;;;;18.51;100.00;101976.78;5031226;28;20099;-74
2023/10/07 08:47:49;;;;;;;28.15;16.17;;;;;;;18.46;100.00;101974.44;5029702;28;20033;-74
2023/10/07 08:50:18;;;;;;;28.35;16.92;;;;;;;18.72;100.00;101985.91;5026457;28;20046;-74
2023/10/07 08:52:44;;;;;;;32.70;16.13;;;;;;;18.78;100.00;101987.28;5028078;28;20179;-73
2023/10/07 08:55:10;;;;;;;31.98;16.95;;;;;;;18.97;100.00;101992.06;5031655;28;20034;-74
2023/10/07 08:57:36;;;;;;;32.83;16.73;;;;;;;19.17;100.00;101988.59;5028355;28;20041;-73
2023/10/07 09:00:11;;;;;;;32.17;15.98;;;;;;;19.18;100.00;101979.53;5026670;28;20111;-73
2023/10/07 09:02:39;;;;;;;30.30;15.27;;;;;;;19.36;100.00;101986.13;5025852;28;20038;-73
2023/10/07 09:05:09;;;;;;;25.38;15.65;;;;;;;19.21;100.00;101990.06;5023827;28;20059;-73
2023/10/07 09:07:36;;;;;;;30.75;14.63;;;;;;;19.35;100.00;101984.41;5035172;28;20172;-73
2023/10/07 09:10:13;;;;;;;28.17;15.38;;;;;;;19.36;100.00;101977.16;5027051;28;20085;-74
2023/10/07 09:12:46;;;;;;;31.45;15.38;;;;;;;19.42;100.00;101985.59;5032557;28;20099;-73
2023/10/07 09:15:21;;;;;;;28.08;15.82;;;;;;;19.20;100.00;101980.25;5027651;28;20144;-73
2023/10/07 09:17:47;;;;;;;32.53;14.80;;;;;;;19.45;100.00;101979.09;5024109;28;20041;-74
2023/10/07 09:20:17;;;;;;;29.52;15.63;;;;;;;19.37;100.00;101974.31;5025681;28;20026;-73
2023/10/07 09:22:46;;;;;;;33.55;15.80;;;;;;;19.31;100.00;101965.84;5028119;28;20033;-74
2023/10/07 09:25:18;;;;;;;26.00;15.00;;;;;;;19.30;100.00;101970.41;5036755;28;20105;-73
2023/10/07 09:27:56;;;;;;;23.60;13.80;;;;;;;19.48;100.00;101967.16;5023053;28;20041;-73
2023/10/07 09:30:35;;;;;;;26.02;16.02;;;;;;;19.46;100.00;101964.56;5027537;28;20440;-73
2023/10/07 09:33:17;;;;;;;30.25;14.10;;;;;;;19.60;100.00;101979.69;5035031;28;20036;-74
2023/10/07 09:35:46;;;;;;;30.13;15.35;;;;;;;19.43;100.00;101967.56;5024173;28;20026;-74
2023/10/07 09:38:22;;;;;;;30.75;14.05;;;;;;;19.52;100.00;101977.59;5024838;28;20231;-74
2023/10/07 09:41:11;;;;;;;27.02;14.77;;;;;;;19.51;100.00;101983.13;5028353;28;20038;-74
2023/10/07 09:43:42;;;;;;;20.88;12.90;;;;;;;19.60;100.00;101991.38;5026746;28;20083;-74
2023/10/07 09:46:08;;;;;;;27.85;13.55;;;;;;;19.44;100.00;101995.47;5024664;28;20080;-73
2023/10/07 09:48:40;;;;;;;27.00;13.15;;;;;;;19.53;100.00;102002.78;5030082;28;20037;-73
2023/10/07 09:51:14;;;;;;;23.33;13.55;;;;;;;19.49;100.00;102004.06;5031659;28;20029;-74
2023/10/07 09:53:52;;;;;;;27.05;13.90;;;;;;;19.48;100.00;101996.91;5027393;28;20030;-75
2023/10/07 09:56:59;;;;;;;23.10;13.57;;;;;;;19.86;100.00;101986.47;5029223;28;20549;-73
2023/10/07 09:59:48;;;;;;;23.52;13.98;;;;;;;20.02;100.00;101985.19;5030630;28;20052;-74
2023/10/07 10:02:44;;;;;;;33.30;13.07;;;;;;;20.09;100.00;101981.84;5019829;28;20055;-73
2023/10/07 10:05:26;;;;;;;22.75;12.32;;;;;;;20.10;100.00;101961.88;5024753;28;20049;-73
2023/10/07 10:08:21;;;;;;;27.67;12.67;;;;;;;20.10;100.00;101972.72;5020080;28;20045;-74
2023/10/07 10:10:49;;;;;;;28.45;12.93;;;;;;;20.16;100.00;101966.75;5017259;28;20057;-73
2023/10/07 10:16:19;;;;;;;24.65;12.73;;;;;;;20.20;100.00;101980.91;5025016;28;20049;-74
2023/10/07 10:18:51;;;;;;;26.92;12.13;;;;;;;20.43;100.00;101977.09;5024963;28;20985;-74
2023/10/07 10:21:22;;;;;;;24.25;11.65;;;;;;;20.67;100.00;101981.34;5021502;28;20030;-74
2023/10/07 10:23:51;;;;;;;25.13;12.57;;;;;;;20.72;100.00;101986.38;5019357;28;20044;-74
2023/10/07 10:26:26;;;;;;;22.10;11.15;;;;;;;21.03;100.00;101990.78;5022218;28;20088;-74
2023/10/07 10:29:03;;;;;;;21.40;11.25;;;;;;;21.22;100.00;101981.84;5021444;28;20073;-74
2023/10/07 10:31:33;;;;;;;23.40;11.02;;;;;;;21.32;100.00;101969.19;5022378;28;20033;-74
2023/10/07 10:34:05;;;;;;;23.88;11.40;;;;;;;21.60;100.00;101966.69;5026762;28;20081;-73
2023/10/07 10:36:38;;;;;;;16.90;10.80;;;;;;;21.64;100.00;101958.13;5031637;28;20135;-73
2023/10/07 10:39:18;;;;;;;29.05;11.10;;;;;;;21.87;99.99;101964.09;5024676;28;20039;-73
2023/10/07 10:41:44;;;;;;;24.92;10.13;;;;;;;21.98;98.89;101958.53;5024597;28;20034;-74
2023/10/07 10:44:15;;;;;;;20.30;10.13;;;;;;;22.00;96.52;101961.13;5022455;28;20037;-73
2023/10/07 10:46:45;;;;;;;30.23;11.23;;;;;;;22.04;96.45;101970.69;5023932;28;20042;-74
2023/10/07 10:49:18;;;;;;;24.90;11.45;;;;;;;21.91;93.98;101970.13;5049735;28;20071;-74
2023/10/07 10:51:47;;;;;;;28.35;11.07;;;;;;;21.75;95.12;101978.00;5024665;28;20040;-74
2023/10/07 10:54:17;;;;;;;23.05;11.07;;;;;;;21.32;96.45;101962.91;5030600;28;20177;-74
2023/10/07 10:56:49;;;;;;;25.23;11.20;;;;;;;21.13;97.35;101972.69;5023919;28;20042;-74
2023/10/07 10:59:18;;;;;;;;;;;;;;;21.04;100.00;101975.41;5025184;28;20451;-74
2023/10/07 11:01:49;;;;;;;22.00;10.15;;;;;;;21.37;99.41;101975.06;5028111;28;19920;-74
2023/10/07 11:04:19;;;;;;;21.38;10.55;;;;;;;21.60;98.23;101972.97;5032023;28;20073;-73
2023/10/07 11:06:45;;;;;;;22.60;10.50;;;;;;;21.77;96.58;101978.69;5035094;28;20042;-74
2023/10/07 11:09:17;;;;;;;25.58;10.75;;;;;;;21.87;96.26;101976.84;5032423;28;20033;-74
2023/10/07 11:11:48;;;;;;;23.15;12.40;;;;;;;21.52;93.93;101974.66;5027088;28;20041;-73
2023/10/07 11:14:20;;;;;;;20.83;10.05;;;;;;;21.40;94.08;101969.38;5031377;28;20943;-74
2023/10/07 11:16:47;;;;;;;26.33;11.07;;;;;;;21.57;95.16;101975.09;5025479;28;20502;-74
2023/10/07 11:19:15;;;;;;;22.00;9.27;;;;;;;21.63;94.95;101960.97;5031083;28;20040;-74
2023/10/07 11:21:48;;;;;;;21.17;8.82;;;;;;;21.55;91.72;101972.53;5030089;28;20046;-73
2023/10/07 11:24:25;;;;;;;23.92;9.88;;;;;;;21.38;92.20;101979.50;5030382;28;20042;-74
2023/10/07 11:26:59;;;;;;;18.77;9.13;;;;;;;21.31;92.19;101981.06;5034297;28;20033;-74
2023/10/07 11:29:30;;;;;;;18.83;9.18;;;;;;;21.32;92.52;101982.78;5026906;28;20405;-73
2023/10/07 11:32:03;;;;;;;22.90;9.25;;;;;;;21.54;91.25;101986.25;5029050;28;20068;-74
2023/10/07 11:34:40;;;;;;;25.08;8.27;;;;;;;21.67;90.64;101990.41;5033260;28;20042;-73
2023/10/07 11:37:10;;;;;;;17.50;8.60;;;;;;;21.57;90.74;101970.53;5036892;28;20049;-73
2023/10/07 11:39:46;;;;;;;19.38;9.07;;;;;;;21.62;91.15;101976.38;5030376;28;20079;-73
2023/10/07 11:42:17;;;;;;;19.95;8.95;;;;;;;21.69;92.40;101980.28;5022881;28;20034;-73
2023/10/07 11:44:46;;;;;;;21.15;8.75;;;;;;;21.58;91.67;101972.22;5023373;28;20033;-73
2023/10/07 11:47:16;;;;;;;26.60;8.65;;;;;;;21.60;92.47;101980.25;5018476;28;20080;-73
2023/10/07 11:49:46;;;;;;;22.15;9.65;;;;;;;21.65;92.89;101969.84;5020748;28;20131;-74
2023/10/07 11:52:12;;;;;;;16.55;8.43;;;;;;;21.56;93.70;101974.25;4999364;28;20478;-73
2023/10/07 11:54:39;;;;;;;16.75;8.98;;;;;;;21.69;92.54;101963.13;5025919;28;20969;-74
2023/10/07 11:57:05;;;;;;;17.20;8.43;;;;;;;21.73;91.58;101973.53;5023516;28;20115;-74
2023/10/07 11:59:34;;;;;;;21.20;9.25;;;;;;;21.51;90.05;101967.53;5020649;28;20924;-73